Time;durP1;ratioP1;P1;durP2;ratioP2;P2;SDS_P1;SDS_P2;PMS_P1;PMS_P2;Temp;Humidity;BMP_temperature;BMP_pressure;BME280_temperature;BME280_humidity;BME280_pressure;Samples;Min_cycle;Max_cycle;Signal;HPM_P1;HPM_P2
2023/07/22 00:06:15;;;;;;;5.23;3.87;;;26.30;39.30;;;;;;20916357;28;20041;-58
2023/07/22 00:16:16;;;;;;;9.33;4.40;;;26.10;40.00;;;;;;20914136;28;20041;-58
2023/07/22 00:26:17;;;;;;;6.07;5.10;;;25.80;40.60;;;;;;20913991;28;20059;-57
2023/07/22 00:36:18;;;;;;;7.57;4.10;;;25.80;40.70;;;;;;20913964;28;20100;-57
2023/07/22 00:46:18;;;;;;;5.17;3.87;;;25.60;41.30;;;;;;20913516;28;20052;-58
2023/07/22 00:56:19;;;;;;;6.77;4.53;;;25.40;41.70;;;;;;20912959;28;20041;-58
2023/07/22 01:06:21;;;;;;;8.53;4.00;;;25.20;42.00;;;;;;20914665;28;20045;-58
2023/07/22 01:16:22;;;;;;;6.13;4.28;;;25.10;42.20;;;;;;20928312;28;20125;-58
2023/07/22 01:26:23;;;;;;;5.90;4.20;;;25.10;42.30;;;;;;20927033;28;20089;-56
2023/07/22 01:36:23;;;;;;;5.53;3.77;;;25.10;42.20;;;;;;20926982;28;20110;-58
2023/07/22 01:46:24;;;;;;;6.27;4.20;;;24.90;42.60;;;;;;20924755;28;20053;-58
2023/07/22 01:56:25;;;;;;;6.35;3.80;;;24.90;42.60;;;;;;20925262;28;20080;-57
2023/07/22 02:06:26;;;;;;;5.23;3.80;;;24.80;42.90;;;;;;20924814;28;20053;-58
2023/07/22 02:16:27;;;;;;;5.77;4.20;;;24.60;43.20;;;;;;20923751;28;20390;-58
2023/07/22 02:26:28;;;;;;;3.70;3.20;;;24.60;43.30;;;;;;20922553;28;20049;-59
2023/07/22 02:36:29;;;;;;;5.05;3.88;;;24.40;43.60;;;;;;20922680;28;20045;-58
2023/07/22 02:46:31;;;;;;;5.25;4.03;;;24.30;43.80;;;;;;20920831;28;20099;-59
2023/07/22 02:56:32;;;;;;;6.20;4.00;;;24.20;44.20;;;;;;20919839;28;20490;-57
2023/07/22 03:06:32;;;;;;;5.22;3.65;;;24.10;44.40;;;;;;20919244;28;20490;-58
2023/07/22 03:16:33;;;;;;;6.75;3.58;;;24.20;44.20;;;;;;20917969;28;20401;-57
2023/07/22 03:26:34;;;;;;;5.35;3.67;;;24.10;44.30;;;;;;20918016;28;20491;-59
2023/07/22 03:36:34;;;;;;;4.93;3.63;;;24.00;44.30;;;;;;20916872;28;20462;-58
2023/07/22 03:46:35;;;;;;;5.30;3.22;;;23.90;44.40;;;;;;20917589;28;20490;-57
2023/07/22 03:56:38;;;;;;;6.88;4.00;;;23.80;44.60;;;;;;20917128;28;20128;-58
2023/07/22 04:06:39;;;;;;;8.70;4.32;;;23.70;44.80;;;;;;20916250;28;20144;-58
2023/07/22 04:16:40;;;;;;;5.47;3.67;;;23.70;44.90;;;;;;20914288;28;20099;-57
2023/07/22 04:26:42;;;;;;;6.30;3.83;;;23.60;45.00;;;;;;20913314;28;20084;-58
2023/07/22 04:36:43;;;;;;;5.20;3.88;;;23.70;44.80;;;;;;20914351;28;20128;-57
2023/07/22 04:46:44;;;;;;;7.97;3.95;;;23.70;44.80;;;;;;20911519;28;20071;-57
2023/07/22 04:56:45;;;;;;;6.80;3.40;;;23.60;44.80;;;;;;20913241;28;20506;-58
2023/07/22 05:06:45;;;;;;;6.68;3.67;;;23.50;45.10;;;;;;20912735;28;20045;-57
2023/07/22 05:16:46;;;;;;;8.13;3.92;;;23.40;45.30;;;;;;20912403;28;20049;-57
2023/07/22 05:26:47;;;;;;;6.13;4.18;;;23.40;45.00;;;;;;20911526;28;20057;-58
2023/07/22 05:36:48;;;;;;;6.13;3.50;;;23.30;45.20;;;;;;20910861;28;20052;-57
2023/07/22 05:46:48;;;;;;;6.53;4.03;;;23.20;45.40;;;;;;20911343;28;20497;-58
2023/07/22 05:56:49;;;;;;;4.70;3.53;;;23.20;45.50;;;;;;20917861;28;20047;-58
2023/07/22 06:06:50;;;;;;;5.45;3.67;;;23.20;45.60;;;;;;20925040;28;20548;-58
2023/07/22 06:16:51;;;;;;;7.18;3.65;;;23.30;45.40;;;;;;20924322;28;20467;-58
2023/07/22 06:26:51;;;;;;;7.07;3.90;;;23.10;45.80;;;;;;20924667;28;20045;-58
2023/07/22 06:36:52;;;;;;;7.20;4.38;;;23.20;45.60;;;;;;20921746;28;20053;-58
2023/07/22 06:46:53;;;;;;;7.55;3.50;;;23.40;45.50;;;;;;20920332;28;20048;-57
2023/07/22 06:56:53;;;;;;;6.93;4.50;;;23.60;44.90;;;;;;20921352;28;20509;-59
2023/07/22 07:06:54;;;;;;;6.32;4.10;;;24.00;44.10;;;;;;20919399;28;20041;-58
2023/07/22 07:16:55;;;;;;;7.53;5.38;;;24.50;43.00;;;;;;20918612;28;20064;-58
2023/07/22 07:26:56;;;;;;;5.93;3.57;;;24.90;42.10;;;;;;20918213;28;20056;-58
2023/07/22 07:36:57;;;;;;;6.17;4.20;;;25.40;41.20;;;;;;20917437;28;20088;-61
2023/07/22 07:46:57;;;;;;;7.67;4.37;;;25.80;40.50;;;;;;20917288;28;20116;-58
2023/07/22 07:56:58;;;;;;;5.60;4.00;;;26.20;39.50;;;;;;20915933;28;20128;-59
2023/07/22 08:06:59;;;;;;;6.70;4.10;;;26.50;39.20;;;;;;20914179;28;20080;-58
2023/07/22 08:16:59;;;;;;;8.77;5.37;;;26.70;38.80;;;;;;20914203;28;20072;-59
2023/07/22 08:27:00;;;;;;;6.20;4.10;;;26.90;38.40;;;;;;20912536;28;20115;-57
2023/07/22 08:37:01;;;;;;;6.27;4.23;;;27.20;37.30;;;;;;20914024;28;20087;-57
2023/07/22 08:47:04;;;;;;;5.22;4.38;;;27.40;37.10;;;;;;20913473;28;20371;-57
2023/07/22 08:57:06;;;;;;;8.73;4.97;;;27.60;36.70;;;;;;20913181;28;20124;-58
2023/07/22 09:07:08;;;;;;;9.88;4.82;;;27.60;36.30;;;;;;20911840;28;20454;-59
2023/07/22 09:17:09;;;;;;;8.65;4.90;;;27.70;36.00;;;;;;20912630;28;20041;-57
2023/07/22 09:27:10;;;;;;;7.82;5.18;;;27.80;35.60;;;;;;20911800;28;20140;-58
2023/07/22 09:37:11;;;;;;;7.13;5.27;;;27.70;36.10;;;;;;20927852;28;20509;-57
2023/07/22 09:47:11;;;;;;;6.67;5.27;;;27.90;35.20;;;;;;20927054;28;20051;-58
2023/07/22 09:57:13;;;;;;;;;;;28.20;34.80;;;;;;20925764;28;20045;-61
2023/07/22 10:07:14;;;;;;;11.40;5.77;;;28.50;37.20;;;;;;20924134;28;19970;-58
2023/07/22 10:17:16;;;;;;;5.93;5.00;;;28.70;34.90;;;;;;20922263;28;20124;-58
2023/07/22 10:27:18;;;;;;;21.42;14.82;;;28.70;33.80;;;;;;20914942;28;20057;-58
2023/07/22 10:37:24;;;;;;;11.07;6.13;;;28.70;33.50;;;;;;20920689;28;20049;-58
2023/07/22 10:47:36;;;;;;;9.52;6.82;;;29.10;32.80;;;;;;20921344;28;20045;-58
2023/07/22 10:57:52;;;;;;;9.35;5.68;;;29.30;31.60;;;;;;20921247;28;20047;-58
2023/07/22 11:08:03;;;;;;;12.30;6.65;;;29.60;29.80;;;;;;20920894;28;20044;-58
2023/07/22 11:18:06;;;;;;;12.38;6.05;;;29.60;30.10;;;;;;20920315;28;20478;-58
2023/07/22 11:28:08;;;;;;;10.85;6.72;;;29.90;29.10;;;;;;20918098;28;20056;-58
2023/07/22 11:38:12;;;;;;;8.52;6.18;;;30.10;29.10;;;;;;20918791;28;20049;-59
2023/07/22 11:48:13;;;;;;;8.93;6.30;;;30.40;29.20;;;;;;20917720;28;20049;-58
2023/07/22 11:58:14;;;;;;;8.73;6.80;;;30.70;28.10;;;;;;20916141;28;20098;-58
2023/07/22 12:08:15;;;;;;;7.60;6.50;;;30.90;27.00;;;;;;20915138;28;20174;-60
2023/07/22 12:18:16;;;;;;;7.72;5.38;;;31.00;27.20;;;;;;20914471;28;20132;-59
2023/07/22 12:28:16;;;;;;;8.40;5.82;;;31.20;26.60;;;;;;20913777;28;20520;-59
2023/07/22 12:38:17;;;;;;;9.75;5.65;;;31.30;26.80;;;;;;20913170;28;20060;-58
2023/07/22 12:48:18;;;;;;;8.43;6.22;;;31.20;26.50;;;;;;20913824;28;20481;-58
2023/07/22 12:58:19;;;;;;;11.13;5.80;;;31.40;26.40;;;;;;20913352;28;20041;-59
2023/07/22 13:08:19;;;;;;;5.80;4.80;;;31.30;26.30;;;;;;20912645;28;20462;-59
2023/07/22 13:18:20;;;;;;;8.50;5.38;;;31.60;25.30;;;;;;20911472;28;20054;-58
2023/07/22 13:28:21;;;;;;;8.77;4.95;;;31.60;25.30;;;;;;20911026;28;20523;-59
2023/07/22 13:38:22;;;;;;;6.75;5.07;;;31.90;25.60;;;;;;20911888;28;20049;-58
2023/07/22 13:48:23;;;;;;;7.15;5.72;;;32.00;24.60;;;;;;20911511;28;20037;-58
2023/07/22 13:58:24;;;;;;;4.80;4.30;;;32.10;24.70;;;;;;20911011;28;20045;-58
2023/07/22 14:08:24;;;;;;;7.25;4.78;;;32.30;24.20;;;;;;20910571;28;20052;-58
2023/07/22 14:18:25;;;;;;;5.93;5.28;;;32.50;24.10;;;;;;20919340;28;20051;-57
2023/07/22 14:28:26;;;;;;;14.88;12.93;;;32.50;24.50;;;;;;20925688;28;20061;-58
2023/07/22 14:38:27;;;;;;;6.97;5.15;;;32.50;24.20;;;;;;20923816;28;20041;-58
2023/07/22 14:48:28;;;;;;;5.95;5.10;;;32.50;24.40;;;;;;20923147;28;20049;-59
2023/07/22 14:58:29;;;;;;;6.32;5.40;;;32.60;24.30;;;;;;20922285;28;20051;-59
2023/07/22 15:08:29;;;;;;;16.70;13.23;;;32.90;23.90;;;;;;20921598;28;20123;-59
2023/07/22 15:18:30;;;;;;;10.00;5.70;;;32.60;24.40;;;;;;20920926;28;20041;-58
2023/07/22 15:28:31;;;;;;;8.75;7.20;;;32.70;24.30;;;;;;20918511;28;20048;-58
2023/07/22 15:38:32;;;;;;;8.93;6.88;;;32.80;24.50;;;;;;20917459;28;20063;-58
2023/07/22 15:48:33;;;;;;;8.20;5.80;;;32.90;24.10;;;;;;20917416;28;20447;-59
2023/07/22 15:58:33;;;;;;;9.02;6.30;;;32.90;24.10;;;;;;20915578;28;20090;-58
2023/07/22 16:08:34;;;;;;;8.55;6.68;;;33.10;24.10;;;;;;20916912;28;20525;-60
2023/07/22 16:18:35;;;;;;;9.93;6.82;;;32.80;24.20;;;;;;20914482;28;20119;-58
2023/07/22 16:28:35;;;;;;;7.75;6.90;;;32.70;24.00;;;;;;20913700;28;20578;-60
2023/07/22 16:38:36;;;;;;;16.67;8.63;;;32.60;23.80;;;;;;20913151;28;20487;-59
2023/07/22 16:48:37;;;;;;;8.95;6.70;;;32.60;24.20;;;;;;20914023;28;20039;-58
2023/07/22 16:58:38;;;;;;;8.23;6.43;;;32.60;23.60;;;;;;20913312;28;20496;-58
2023/07/22 17:08:38;;;;;;;8.88;6.75;;;32.60;23.60;;;;;;20912157;28;20182;-58
2023/07/22 17:18:39;;;;;;;8.57;6.70;;;32.50;23.70;;;;;;20912060;28;20125;-59
2023/07/22 17:28:40;;;;;;;8.60;7.03;;;32.50;23.50;;;;;;20912466;28;20053;-57
2023/07/22 17:38:40;;;;;;;11.15;6.63;;;32.40;23.70;;;;;;20911402;28;20075;-58
2023/07/22 17:48:41;;;;;;;7.18;6.03;;;32.30;23.60;;;;;;20912155;28;20041;-59
2023/07/22 17:58:42;;;;;;;17.70;7.60;;;32.40;23.50;;;;;;20925440;28;20056;-59
2023/07/22 18:08:43;;;;;;;39.30;12.98;;;32.20;24.00;;;;;;20926488;28;20041;-58
2023/07/22 18:18:43;;;;;;;8.10;6.50;;;32.10;24.10;;;;;;20925347;28;20128;-58
2023/07/22 18:28:44;;;;;;;11.45;6.15;;;32.10;24.10;;;;;;20924869;28;20122;-59
2023/07/22 18:38:45;;;;;;;10.95;5.70;;;32.10;24.50;;;;;;20924379;28;20052;-57
2023/07/22 18:48:46;;;;;;;10.20;7.65;;;31.80;24.40;;;;;;20923519;28;20090;-58
2023/07/22 18:58:47;;;;;;;11.10;8.77;;;31.60;24.80;;;;;;20921906;28;20487;-59
2023/07/22 19:08:48;;;;;;;8.27;7.15;;;31.60;24.90;;;;;;20921202;28;20463;-58
2023/07/22 19:18:49;;;;;;;10.07;6.47;;;31.40;24.90;;;;;;20920891;28;20056;-59
2023/07/22 19:28:49;;;;;;;10.98;8.60;;;31.20;25.10;;;;;;20918890;28;20060;-59
2023/07/22 19:38:50;;;;;;;12.85;8.90;;;31.00;25.30;;;;;;20919279;28;20103;-58
2023/07/22 19:48:51;;;;;;;31.02;27.77;;;30.90;25.20;;;;;;20918365;28;20037;-58
2023/07/22 19:58:52;;;;;;;13.45;10.20;;;30.90;25.40;;;;;;20917898;28;20037;-58
2023/07/22 20:08:52;;;;;;;15.48;11.93;;;30.60;25.30;;;;;;20917709;28;20190;-58
2023/07/22 20:18:53;;;;;;;16.33;12.57;;;30.40;25.20;;;;;;20915264;28;20110;-58
2023/07/22 20:28:54;;;;;;;19.05;14.35;;;30.40;25.30;;;;;;20915115;28;20056;-59
2023/07/22 20:38:57;;;;;;;22.45;17.33;;;30.10;24.90;;;;;;20913891;28;20048;-60
2023/07/22 20:48:58;;;;;;;24.45;18.27;;;30.00;25.40;;;;;;20913876;28;20105;-59
2023/07/22 20:58:59;;;;;;;22.52;18.45;;;29.80;24.80;;;;;;20913235;28;20127;-58
2023/07/22 21:08:59;;;;;;;33.53;24.48;;;29.70;24.50;;;;;;20913241;28;20080;-58
2023/07/22 21:19:00;;;;;;;39.60;27.65;;;29.60;23.90;;;;;;20912999;28;20111;-58
2023/07/22 21:29:01;;;;;;;41.70;30.20;;;29.60;23.40;;;;;;20922590;28;20055;-60
2023/07/22 21:39:02;;;;;;;44.20;34.45;;;29.40;23.40;;;;;;20927672;28;20049;-58
2023/07/22 21:49:03;;;;;;;42.60;32.80;;;29.30;23.40;;;;;;20928269;28;20498;-58
2023/07/22 21:59:03;;;;;;;39.78;29.17;;;29.20;23.20;;;;;;20927309;28;20041;-60
2023/07/22 22:09:04;;;;;;;34.72;27.15;;;29.10;24.10;;;;;;20926335;28;20122;-58
2023/07/22 22:19:05;;;;;;;38.67;27.10;;;28.90;24.70;;;;;;20924222;28;20052;-60
2023/07/22 22:29:05;;;;;;;37.83;27.10;;;28.70;25.10;;;;;;20923438;28;20502;-58
2023/07/22 22:39:06;;;;;;;37.15;25.40;;;28.50;25.50;;;;;;20922397;28;20053;-57
2023/07/22 22:49:07;;;;;;;;;;;28.30;25.90;;;;;;20923560;28;20540;-59
2023/07/22 22:59:10;;;;;;;30.45;22.65;;;28.10;26.40;;;;;;20922594;28;19960;-59
2023/07/22 23:09:13;;;;;;;30.63;22.55;;;27.90;27.20;;;;;;20921884;28;20099;-60
2023/07/22 23:19:14;;;;;;;32.83;22.27;;;27.80;27.60;;;;;;20921341;28;20409;-59
2023/07/22 23:29:14;;;;;;;32.42;21.95;;;27.70;27.50;;;;;;20919306;28;20049;-60
2023/07/22 23:39:15;;;;;;;29.47;21.97;;;27.60;27.70;;;;;;20919067;28;20045;-58
2023/07/22 23:49:16;;;;;;;31.43;23.30;;;27.50;28.00;;;;;;20917927;28;20286;-58
2023/07/22 23:59:16;;;;;;;34.47;20.50;;;27.40;29.00;;;;;;20917921;28;20045;-59
